Time;durP1;ratioP1;P1;durP2;ratioP2;P2;SDS_P1;SDS_P2;PMS_P1;PMS_P2;Temp;Humidity;BMP_temperature;BMP_pressure;BME280_temperature;BME280_humidity;BME280_pressure;Samples;Min_cycle;Max_cycle;Signal;HPM_P1;HPM_P2
2021/03/16 00:02:04;;;;;;;35.80;20.97;;;;;;;5.54;77.66;98414.95;1740155;82;21588;-71
2021/03/16 00:04:34;;;;;;;33.33;19.90;;;;;;;5.51;77.76;98420.88;1758396;81;21168;-71
2021/03/16 00:07:07;;;;;;;33.78;19.73;;;;;;;5.43;77.90;98425.36;1769669;81;21167;-71
2021/03/16 00:09:35;;;;;;;27.77;18.10;;;;;;;5.38;77.99;98419.60;1765981;81;21112;-71
2021/03/16 00:12:03;;;;;;;34.23;18.95;;;;;;;5.52;77.66;98425.19;1739710;81;21582;-72
2021/03/16 00:14:30;;;;;;;34.48;18.92;;;;;;;5.53;77.53;98417.69;1737186;82;21187;-72
2021/03/16 00:16:57;;;;;;;33.63;20.43;;;;;;;5.47;77.66;98422.87;1753700;81;21178;-71
2021/03/16 00:19:26;;;;;;;34.10;19.48;;;;;;;5.42;77.84;98419.74;1736544;82;21321;-71
2021/03/16 00:21:53;;;;;;;31.07;19.35;;;;;;;5.42;77.81;98426.30;1748526;81;21187;-71
2021/03/16 00:24:21;;;;;;;27.10;18.75;;;;;;;5.57;77.42;98429.63;1762332;81;21560;-71
2021/03/16 00:26:50;;;;;;;31.73;19.67;;;;;;;5.60;77.24;98428.12;1767270;81;21180;-70
2021/03/16 00:29:17;;;;;;;31.20;20.17;;;;;;;5.55;77.30;98438.07;1764237;81;21587;-71
2021/03/16 00:31:44;;;;;;;33.60;19.75;;;;;;;5.50;77.35;98438.87;1675820;84;21230;-71
2021/03/16 00:34:12;;;;;;;29.67;18.75;;;;;;;5.46;77.38;98441.34;1703857;84;21612;-71
2021/03/16 00:36:39;;;;;;;31.60;19.20;;;;;;;5.53;76.99;98442.12;1714012;83;21155;-71
2021/03/16 00:39:07;;;;;;;30.12;18.80;;;;;;;5.60;76.75;98432.05;1699290;84;21192;-71
2021/03/16 00:41:36;;;;;;;31.35;19.50;;;;;;;5.53;76.88;98432.11;1770119;81;21675;-71
2021/03/16 00:44:04;;;;;;;30.65;19.45;;;;;;;5.41;76.99;98435.96;1747293;81;21308;-71
2021/03/16 00:46:34;;;;;;;29.32;18.67;;;;;;;5.33;77.13;98446.16;1744625;82;21292;-71
2021/03/16 00:49:01;;;;;;;24.72;16.77;;;;;;;5.36;77.04;98436.75;1755760;81;21290;-71
2021/03/16 00:51:30;;;;;;;28.98;17.62;;;;;;;5.51;76.69;98429.61;1772719;81;21174;-71
2021/03/16 00:53:57;;;;;;;31.10;19.32;;;;;;;5.49;76.59;98438.53;1699209;84;21171;-71
2021/03/16 00:56:25;;;;;;;32.50;19.98;;;;;;;5.40;76.73;98435.59;1753414;81;21146;-71
2021/03/16 00:58:52;;;;;;;31.93;20.48;;;;;;;5.33;76.68;98443.53;1744927;82;21618;-71
2021/03/16 01:01:19;;;;;;;36.05;20.75;;;;;;;5.22;76.81;98431.64;1760611;81;21195;-71
2021/03/16 01:03:48;;;;;;;29.67;19.23;;;;;;;5.19;76.78;98425.28;1699182;83;21187;-71
2021/03/16 01:06:15;;;;;;;25.50;17.67;;;;;;;5.31;76.52;98424.44;1772843;81;21140;-71
2021/03/16 01:08:44;;;;;;;27.50;16.95;;;;;;;5.28;76.59;98427.30;1769653;81;21153;-71
2021/03/16 01:11:11;;;;;;;28.90;17.32;;;;;;;5.21;76.77;98427.34;1775431;81;21310;-71
2021/03/16 01:13:38;;;;;;;27.70;17.30;;;;;;;5.14;76.92;98424.77;1765186;80;21183;-71
2021/03/16 01:16:05;;;;;;;26.93;17.48;;;;;;;5.14;76.88;98423.45;1699726;83;21587;-71
2021/03/16 01:18:32;;;;;;;26.62;16.20;;;;;;;5.27;76.42;98416.44;1775144;81;21164;-71
2021/03/16 01:21:00;;;;;;;27.20;17.73;;;;;;;5.24;76.40;98417.94;1765929;80;21634;-71
2021/03/16 01:23:28;;;;;;;27.60;17.80;;;;;;;5.16;76.53;98411.09;1750173;82;21638;-71
2021/03/16 01:25:57;;;;;;;28.83;17.52;;;;;;;5.09;76.62;98422.48;1756744;80;21333;-71
2021/03/16 01:28:24;;;;;;;27.52;17.02;;;;;;;5.11;76.51;98407.96;1702082;84;21192;-71
2021/03/16 01:30:51;;;;;;;26.73;17.80;;;;;;;5.22;76.15;98403.64;1770459;81;21203;-71
2021/03/16 01:33:20;;;;;;;27.67;16.95;;;;;;;5.18;76.22;98410.50;1697316;84;21150;-71
2021/03/16 01:35:47;;;;;;;28.23;17.82;;;;;;;5.07;76.38;98409.95;1699125;84;21171;-71
2021/03/16 01:38:14;;;;;;;28.45;16.93;;;;;;;4.99;76.55;98409.17;1694357;83;21325;-71
2021/03/16 01:40:41;;;;;;;27.90;17.77;;;;;;;4.98;76.62;98406.66;1719153;83;21302;-71
2021/03/16 01:43:25;;;;;;;24.20;16.82;;;;;;;5.13;76.21;98403.43;1704837;84;21203;-71
2021/03/16 01:45:52;;;;;;;24.40;16.70;;;;;;;5.13;76.12;98403.43;1754941;81;21171;-71
2021/03/16 01:48:24;;;;;;;28.52;18.60;;;;;;;5.02;76.23;98404.19;1739716;82;21312;-71
2021/03/16 01:50:51;;;;;;;26.45;17.48;;;;;;;4.89;76.37;98396.34;1739691;81;21220;-71
2021/03/16 01:53:19;;;;;;;24.92;16.60;;;;;;;4.79;76.54;98394.81;1756961;81;21309;-71
2021/03/16 01:55:46;;;;;;;27.87;17.95;;;;;;;4.90;76.22;98396.23;1770303;81;21191;-71
2021/03/16 01:58:14;;;;;;;27.52;17.27;;;;;;;4.89;76.20;98396.34;1766616;81;21226;-71
2021/03/16 02:01:00;;;;;;;27.22;18.52;;;;;;;4.76;76.43;98401.09;1740071;82;21598;-71
2021/03/16 02:03:51;;;;;;;27.50;17.73;;;;;;;4.64;76.66;98396.68;1746653;81;21172;-75
2021/03/16 02:06:55;;;;;;;28.02;17.62;;;;;;;4.68;76.50;98406.48;1702414;84;21178;-74
2021/03/16 02:09:48;;;;;;;29.63;18.05;;;;;;;4.66;76.43;98396.12;1768066;81;21319;-72
2021/03/16 02:12:48;;;;;;;29.03;17.07;;;;;;;4.49;76.78;98396.41;1767682;81;21176;-72
2021/03/16 02:15:37;;;;;;;29.15;16.85;;;;;;;4.33;77.01;98391.38;1775058;81;21155;-72
2021/03/16 02:18:26;;;;;;;27.98;16.77;;;;;;;4.39;76.79;98399.64;1772186;81;21569;-73
2021/03/16 02:21:24;;;;;;;28.15;18.30;;;;;;;4.32;76.91;98399.67;1687259;84;21179;-72
2021/03/16 02:24:51;;;;;;;28.52;17.90;;;;;;;4.19;77.27;98404.05;1709577;84;21147;-72
2021/03/16 02:28:11;;;;;;;27.25;17.77;;;;;;;4.17;77.24;98397.62;1728395;83;21152;-72
2021/03/16 02:30:57;;;;;;;30.45;18.40;;;;;;;4.21;77.06;98391.72;1771343;80;22322;-72
2021/03/16 02:33:43;;;;;;;28.45;17.62;;;;;;;4.06;77.40;98400.09;1699314;84;21139;-72
2021/03/16 02:36:29;;;;;;;27.37;16.27;;;;;;;3.98;77.57;98403.21;1773996;81;21116;-73
2021/03/16 02:39:15;;;;;;;26.30;17.15;;;;;;;4.12;77.25;98404.94;1700136;82;21150;-73
2021/03/16 02:42:03;;;;;;;27.25;17.40;;;;;;;4.14;77.14;98398.28;1720458;81;21130;-72
2021/03/16 02:44:48;;;;;;;26.48;16.65;;;;;;;4.05;77.31;98407.12;1748380;81;21301;-72
2021/03/16 02:47:35;;;;;;;26.33;17.32;;;;;;;3.97;77.48;98405.94;1744757;82;21235;-72
2021/03/16 02:50:22;;;;;;;31.10;18.20;;;;;;;4.01;77.18;98400.38;1757654;81;21191;-72
2021/03/16 02:53:10;;;;;;;30.20;17.45;;;;;;;4.07;76.91;98397.86;1775114;81;21124;-72
2021/03/16 02:55:55;;;;;;;27.15;17.15;;;;;;;3.99;77.01;98407.96;1687171;84;21687;-72
2021/03/16 02:58:41;;;;;;;28.47;17.02;;;;;;;3.88;77.16;98409.98;1775080;81;21765;-72
2021/03/16 03:01:27;;;;;;;29.20;17.37;;;;;;;3.92;76.95;98399.20;1766866;81;21170;-72
2021/03/16 03:04:13;;;;;;;30.55;17.65;;;;;;;3.97;76.72;98395.47;1774457;81;22135;-71
2021/03/16 03:06:59;;;;;;;30.12;18.75;;;;;;;3.87;76.90;98395.22;1775137;81;21144;-71
2021/03/16 03:09:45;;;;;;;28.20;17.50;;;;;;;3.74;77.03;98388.62;1774397;81;21278;-71
2021/03/16 03:14:09;;;;;;;30.23;18.90;;;;;;;3.90;76.65;98384.55;1811803;78;23459;-72
2021/03/16 03:16:58;;;;;;;28.02;18.55;;;;;;;3.82;76.74;98392.06;1761483;80;21175;-72
2021/03/16 03:19:44;;;;;;;32.53;18.27;;;;;;;3.72;76.87;98388.73;1761406;81;21147;-72
2021/03/16 03:22:59;;;;;;;27.48;17.82;;;;;;;3.66;77.01;98389.57;1763839;79;21201;-72
2021/03/16 03:25:52;;;;;;;28.62;17.80;;;;;;;3.79;76.61;98389.17;1761354;81;21182;-72
2021/03/16 03:28:41;;;;;;;29.27;18.40;;;;;;;3.72;76.50;98386.13;1771188;79;21324;-72
2021/03/16 03:31:27;;;;;;;27.90;16.67;;;;;;;3.58;76.74;98383.53;1762144;81;21308;-72
2021/03/16 03:34:14;;;;;;;28.02;17.60;;;;;;;3.53;76.81;98388.20;1767419;79;21158;-72
2021/03/16 03:37:00;;;;;;;30.32;17.02;;;;;;;3.67;76.38;98394.73;1793229;80;21118;-71
2021/03/16 03:39:46;;;;;;;33.20;18.32;;;;;;;3.60;76.48;98392.13;1785618;79;21185;-72
2021/03/16 03:42:32;;;;;;;25.80;16.93;;;;;;;2.88;76.45;98289.08;1761375;79;22129;-71
2021/03/16 03:45:17;;;;;;;27.82;16.90;;;;;;;3.46;76.53;98395.60;1761184;81;21175;-72
2021/03/16 03:48:09;;;;;;;27.93;17.20;;;;;;;3.58;76.02;98394.84;1789327;79;21567;-72
2021/03/16 03:51:02;;;;;;;27.90;17.75;;;;;;;3.50;76.15;98391.03;1727997;78;21198;-72
2021/03/16 03:53:49;;;;;;;28.87;16.40;;;;;;;3.36;76.20;98401.03;1677240;85;21577;-71
2021/03/16 03:56:35;;;;;;;27.22;17.15;;;;;;;3.35;76.07;98394.13;1708147;84;21195;-71
2021/03/16 03:59:21;;;;;;;25.65;17.17;;;;;;;3.42;75.78;98393.64;1713743;83;21187;-71
2021/03/16 04:02:07;;;;;;;27.17;16.62;;;;;;;3.32;75.91;98381.27;1650761;87;21167;-71
2021/03/16 04:04:53;;;;;;;27.58;16.48;;;;;;;3.18;76.06;98379.03;1680921;83;21163;-71
2021/03/16 04:07:39;;;;;;;25.43;16.37;;;;;;;3.19;76.04;98374.18;1704740;82;21177;-71
2021/03/16 04:10:24;;;;;;;26.25;16.10;;;;;;;3.26;75.75;98379.41;1695576;82;21183;-71
2021/03/16 04:13:10;;;;;;;25.80;15.83;;;;;;;3.16;75.89;98380.05;1706811;84;21186;-71
2021/03/16 04:15:56;;;;;;;23.85;15.15;;;;;;;3.03;76.01;98382.14;1654849;85;21332;-71
2021/03/16 04:18:44;;;;;;;24.27;14.70;;;;;;;3.05;75.91;98383.34;1706285;83;21326;-71
2021/03/16 04:21:31;;;;;;;24.87;15.72;;;;;;;3.11;75.62;98387.72;1723946;83;21353;-72
2021/03/16 04:24:16;;;;;;;25.32;15.65;;;;;;;3.02;75.67;98386.98;1703668;84;21178;-71
2021/03/16 04:27:03;;;;;;;25.15;14.68;;;;;;;2.92;75.67;98385.39;1702373;84;21565;-71
2021/03/16 04:29:48;;;;;;;22.73;14.53;;;;;;;2.91;75.59;98391.53;1707684;84;21345;-71
2021/03/16 04:32:34;;;;;;;23.75;15.32;;;;;;;2.99;75.28;98391.07;1688318;84;21226;-71
2021/03/16 04:35:20;;;;;;;28.65;15.78;;;;;;;2.90;75.37;98390.33;1703285;84;21188;-72
2021/03/16 04:38:06;;;;;;;23.73;14.55;;;;;;;2.78;75.74;98394.05;1694907;84;21172;-70
2021/03/16 04:40:52;;;;;;;22.67;14.55;;;;;;;2.83;75.63;98385.95;1707235;84;21332;-71
2021/03/16 04:43:41;;;;;;;26.50;15.80;;;;;;;2.92;75.36;98391.09;1698788;84;21198;-71
2021/03/16 04:46:24;;;;;;;24.43;14.35;;;;;;;2.84;75.41;98390.25;1691354;84;21165;-71
2021/03/16 04:49:10;;;;;;;24.63;14.73;;;;;;;2.75;75.61;98404.69;1693575;83;21188;-70
2021/03/16 04:51:56;;;;;;;24.80;14.15;;;;;;;2.70;75.82;98403.27;1694991;83;21661;-70
2021/03/16 04:54:42;;;;;;;27.32;15.43;;;;;;;2.87;75.45;98397.89;1698975;83;21194;-70
2021/03/16 04:57:29;;;;;;;26.97;16.35;;;;;;;2.88;75.34;98402.66;1717047;83;21152;-70
2021/03/16 05:00:15;;;;;;;31.65;16.57;;;;;;;2.82;75.35;98402.55;1716303;83;21189;-70
2021/03/16 05:03:02;;;;;;;26.05;14.75;;;;;;;2.75;75.48;98415.14;1718758;83;21313;-70
2021/03/16 05:05:47;;;;;;;25.45;15.53;;;;;;;2.89;74.94;98410.84;1733383;83;21162;-70
2021/03/16 05:08:33;;;;;;;26.15;15.45;;;;;;;2.56;74.99;98355.83;1730117;83;21182;-70
2021/03/16 05:11:19;;;;;;;25.50;14.47;;;;;;;2.78;75.26;98403.19;1719166;83;21171;-70
2021/03/16 05:14:05;;;;;;;25.62;15.63;;;;;;;2.76;75.24;98401.16;1710211;84;21127;-70
2021/03/16 05:16:51;;;;;;;27.52;15.95;;;;;;;2.95;74.83;98406.56;1709050;84;22209;-70
2021/03/16 05:19:37;;;;;;;26.93;16.12;;;;;;;2.92;74.84;98412.81;1700839;84;21143;-70
2021/03/16 05:22:23;;;;;;;24.95;14.95;;;;;;;2.88;75.02;98409.19;1705993;83;21345;-71
2021/03/16 05:25:10;;;;;;;23.15;14.00;;;;;;;2.85;74.84;98406.74;1710441;84;21312;-72
2021/03/16 05:27:56;;;;;;;25.15;15.70;;;;;;;3.00;74.43;98407.59;1709842;84;21228;-73
2021/03/16 05:30:41;;;;;;;29.00;16.07;;;;;;;2.98;74.57;98411.62;1709325;84;21162;-73
2021/03/16 05:33:27;;;;;;;28.83;14.90;;;;;;;2.93;74.69;98407.14;1710704;84;21114;-70
2021/03/16 05:36:13;;;;;;;28.67;14.68;;;;;;;2.91;74.77;98422.05;1705106;84;21131;-70
2021/03/16 05:38:59;;;;;;;28.50;16.97;;;;;;;3.09;74.47;98411.77;1711428;84;21166;-73
2021/03/16 05:42:06;;;;;;;47.23;27.87;;;;;;;3.17;74.27;98417.87;1756512;81;21181;-72
2021/03/16 05:44:52;;;;;;;29.10;16.57;;;;;;;3.13;74.45;98418.14;1744967;81;21181;-71
2021/03/16 05:47:39;;;;;;;27.40;15.23;;;;;;;3.13;74.54;98419.44;1763052;81;21197;-72
2021/03/16 05:50:25;;;;;;;27.95;15.15;;;;;;;3.32;74.48;98426.52;1754244;81;21220;-72
2021/03/16 05:53:11;;;;;;;26.33;15.28;;;;;;;3.57;73.21;98422.39;1768127;81;21198;-72
2021/03/16 05:55:56;;;;;;;26.27;14.47;;;;;;;3.63;73.47;98422.45;1723375;82;21169;-72
2021/03/16 05:58:43;;;;;;;26.93;15.85;;;;;;;3.64;73.24;98427.59;1690571;85;21177;-73
2021/03/16 06:01:29;;;;;;;25.85;15.13;;;;;;;3.67;73.25;98419.56;1724372;82;21552;-72
2021/03/16 06:04:15;;;;;;;27.65;16.15;;;;;;;3.80;72.85;98424.00;1720917;83;21186;-71
2021/03/16 06:07:01;;;;;;;28.40;16.42;;;;;;;4.02;72.23;98418.25;1724394;81;21201;-73
2021/03/16 06:09:49;;;;;;;27.95;16.67;;;;;;;4.01;71.99;98422.63;1720975;82;21641;-71
2021/03/16 06:12:37;;;;;;;28.07;16.82;;;;;;;3.96;72.04;98418.16;1741859;81;21125;-72
2021/03/16 06:15:23;;;;;;;27.37;14.78;;;;;;;3.93;72.17;98417.05;1764633;81;21607;-72
2021/03/16 06:18:11;;;;;;;29.60;15.80;;;;;;;3.98;71.90;98420.66;1715570;83;21157;-73
2021/03/16 06:21:01;;;;;;;28.70;16.77;;;;;;;4.08;71.49;98412.14;1724288;83;21521;-71
2021/03/16 06:23:53;;;;;;;25.43;14.38;;;;;;;3.99;71.79;98415.36;1731113;83;21213;-71
2021/03/16 06:26:46;;;;;;;28.70;14.53;;;;;;;3.91;72.00;98417.16;1735601;81;21130;-71
2021/03/16 06:29:41;;;;;;;27.95;15.40;;;;;;;3.92;72.04;98424.05;1705949;84;21309;-71
2021/03/16 06:32:36;;;;;;;26.02;15.75;;;;;;;4.06;72.16;98443.27;1731356;81;21193;-72
2021/03/16 06:35:25;;;;;;;26.42;15.55;;;;;;;4.08;72.20;98459.72;1718670;83;21163;-72
2021/03/16 06:38:11;;;;;;;25.85;15.85;;;;;;;4.07;72.34;98455.41;1710608;83;21158;-72
2021/03/16 06:41:14;;;;;;;25.40;14.03;;;;;;;4.06;72.23;98450.63;1728532;83;21699;-72
2021/03/16 06:44:02;;;;;;;29.07;15.00;;;;;;;4.24;72.13;98445.98;1727228;83;21733;-74
2021/03/16 06:46:57;;;;;;;24.50;15.28;;;;;;;4.40;71.52;98447.63;1697544;83;21177;-74
2021/03/16 06:49:32;;;;;;;30.27;15.28;;;;;;;4.42;71.39;98447.89;1808714;79;24050;-71
2021/03/16 06:52:18;;;;;;;25.32;14.07;;;;;;;4.37;71.50;98456.97;1754879;81;21138;-71
2021/03/16 06:55:14;;;;;;;28.98;15.20;;;;;;;4.35;71.53;98440.06;1764266;81;22250;-70
2021/03/16 06:58:06;;;;;;;26.87;15.43;;;;;;;4.53;71.18;98439.79;1757976;81;21164;-72
2021/03/16 07:01:13;;;;;;;26.77;15.08;;;;;;;4.62;70.94;98430.00;1754793;81;21321;-72
2021/03/16 07:04:16;;;;;;;27.05;15.72;;;;;;;4.67;71.01;98445.42;1741045;81;21211;-72
2021/03/16 07:07:03;;;;;;;26.65;15.63;;;;;;;4.72;71.35;98444.16;1745187;81;21188;-72
2021/03/16 07:09:50;;;;;;;26.17;14.87;;;;;;;4.93;71.04;98437.09;1746355;81;21172;-73
2021/03/16 07:12:36;;;;;;;25.88;15.20;;;;;;;5.20;70.72;98445.31;1754192;81;21175;-72
2021/03/16 07:15:23;;;;;;;25.43;15.83;;;;;;;5.26;69.69;98433.10;1750529;82;21587;-72
2021/03/16 07:18:11;;;;;;;25.15;14.63;;;;;;;5.20;69.92;98444.01;1761938;81;21173;-72
2021/03/16 07:20:58;;;;;;;27.48;15.68;;;;;;;5.18;69.67;98435.40;1738457;81;21205;-72
2021/03/16 07:24:00;;;;;;;24.57;15.13;;;;;;;5.22;69.39;98425.09;1749759;81;21180;-71
2021/03/16 07:26:46;;;;;;;24.40;14.70;;;;;;;5.42;69.58;98430.23;1719157;81;21733;-72
2021/03/16 07:29:32;;;;;;;24.32;15.32;;;;;;;5.44;69.12;98430.15;1750556;81;21203;-72
2021/03/16 07:32:19;;;;;;;26.07;15.28;;;;;;;5.46;69.25;98429.55;1757099;81;21264;-72
2021/03/16 07:35:06;;;;;;;25.35;14.65;;;;;;;5.51;69.55;98429.61;1759313;81;21182;-72
2021/03/16 07:37:52;;;;;;;22.42;14.38;;;;;;;5.75;68.76;98420.92;1756457;81;21178;-72
2021/03/16 07:40:39;;;;;;;27.67;14.10;;;;;;;5.88;68.57;98427.43;1692850;83;21183;-72
2021/03/16 07:43:37;;;;;;;25.48;14.93;;;;;;;5.91;68.53;98428.05;1691252;84;21152;-72
2021/03/16 07:46:23;;;;;;;29.20;15.75;;;;;;;5.97;68.87;98428.55;1690621;84;21163;-72
2021/03/16 07:49:14;;;;;;;27.07;15.85;;;;;;;6.10;69.00;98419.34;1679003;85;21878;-72
2021/03/16 07:52:00;;;;;;;24.20;14.23;;;;;;;6.19;68.19;98427.39;1723796;82;21161;-71
2021/03/16 07:54:50;;;;;;;24.80;14.78;;;;;;;6.43;67.70;98423.06;1743564;81;21162;-71
2021/03/16 07:57:36;;;;;;;28.50;15.78;;;;;;;6.69;67.58;98425.88;1736647;81;21151;-71
2021/03/16 08:00:29;;;;;;;23.80;15.10;;;;;;;6.79;66.97;98413.35;1738374;82;21188;-72
2021/03/16 08:03:26;;;;;;;42.95;16.48;;;;;;;6.80;66.27;98404.52;1752538;81;21578;-72
2021/03/16 08:06:23;;;;;;;26.50;15.20;;;;;;;6.78;66.72;98398.53;1743858;82;21190;-72
2021/03/16 08:09:21;;;;;;;25.08;15.08;;;;;;;6.82;66.29;98422.33;1729593;81;21175;-70
2021/03/16 08:12:29;;;;;;;26.60;15.58;;;;;;;6.80;66.37;98412.41;1726745;81;21179;-70
2021/03/16 08:15:17;;;;;;;26.68;15.50;;;;;;;6.96;65.83;98401.57;1740266;81;21199;-69
2021/03/16 08:18:06;;;;;;;26.10;14.93;;;;;;;6.98;65.70;98398.33;1738292;82;21179;-69
2021/03/16 08:20:56;;;;;;;27.15;15.63;;;;;;;6.94;65.99;98399.53;1678534;84;22667;-69
2021/03/16 08:23:42;;;;;;;25.35;15.80;;;;;;;6.96;65.82;98415.53;1749131;81;21300;-71
2021/03/16 08:26:28;;;;;;;29.20;15.75;;;;;;;6.96;66.37;98415.53;1745948;81;21164;-71
2021/03/16 08:29:14;;;;;;;23.98;14.93;;;;;;;6.97;66.03;98406.70;1741342;82;21274;-71
2021/03/16 08:32:00;;;;;;;25.02;14.87;;;;;;;7.13;65.69;98401.57;1682543;84;21178;-71
2021/03/16 08:34:46;;;;;;;27.35;15.35;;;;;;;7.22;65.45;98402.16;1735730;80;21166;-70
2021/03/16 08:37:36;;;;;;;26.07;16.00;;;;;;;7.16;65.27;98409.20;1717631;83;21186;-71
2021/03/16 08:40:24;;;;;;;25.90;14.68;;;;;;;7.14;65.78;98410.64;1736664;81;21735;-69
2021/03/16 08:43:10;;;;;;;28.85;16.40;;;;;;;7.15;65.87;98407.06;1729338;82;21604;-69
2021/03/16 08:45:57;;;;;;;25.43;14.95;;;;;;;7.17;65.55;98397.74;1740566;81;21136;-71
2021/03/16 08:48:47;;;;;;;27.65;14.80;;;;;;;7.22;65.33;98400.84;1747397;81;21205;-70
2021/03/16 08:51:33;;;;;;;26.77;15.30;;;;;;;7.41;65.59;98409.94;1734269;81;21164;-70
2021/03/16 08:54:27;;;;;;;22.37;14.10;;;;;;;7.43;64.79;98410.17;1749979;81;21181;-69
2021/03/16 08:57:26;;;;;;;23.30;14.65;;;;;;;7.43;65.03;98407.55;1741155;82;21188;-70
2021/03/16 09:00:14;;;;;;;24.50;14.23;;;;;;;7.43;65.06;98402.28;1735004;81;21314;-71
2021/03/16 09:03:00;;;;;;;24.02;14.63;;;;;;;7.44;64.83;98407.87;1700826;83;21859;-70
2021/03/16 09:05:47;;;;;;;22.50;14.00;;;;;;;7.41;64.85;98400.73;1737055;81;21132;-71
2021/03/16 09:08:32;;;;;;;24.18;14.25;;;;;;;7.62;65.04;98401.66;1731146;82;21313;-71
2021/03/16 09:11:37;;;;;;;25.75;14.93;;;;;;;7.79;64.85;98410.00;1745241;81;21181;-70
2021/03/16 09:14:23;;;;;;;25.62;15.40;;;;;;;7.83;64.47;98410.94;1738995;82;21301;-70
2021/03/16 09:17:08;;;;;;;24.40;15.58;;;;;;;7.87;64.96;98402.31;1675484;83;21326;-69
2021/03/16 09:19:55;;;;;;;26.10;15.72;;;;;;;7.91;64.62;98398.47;1700480;83;21301;-69
2021/03/16 09:22:41;;;;;;;27.58;16.77;;;;;;;7.96;64.32;98398.92;1725261;82;21140;-69
2021/03/16 09:25:33;;;;;;;24.63;13.75;;;;;;;8.04;64.41;98388.62;1732874;81;21164;-70
2021/03/16 09:28:21;;;;;;;24.43;14.87;;;;;;;8.24;64.05;98391.41;1731890;82;21187;-71
2021/03/16 09:31:06;;;;;;;27.80;15.40;;;;;;;8.37;63.34;98389.41;1742741;81;21170;-70
2021/03/16 09:33:54;;;;;;;24.98;15.18;;;;;;;8.40;63.74;98398.04;1730622;82;21619;-70
2021/03/16 09:36:41;;;;;;;24.52;15.50;;;;;;;8.39;63.10;98401.17;1744902;81;21309;-70
2021/03/16 09:39:27;;;;;;;26.95;16.12;;;;;;;8.36;63.46;98410.16;1752848;82;21306;-70
2021/03/16 09:41:56;;;;;;;27.32;15.10;;;;;;;8.27;63.71;98401.68;1726405;81;21306;-70
2021/03/16 09:44:39;;;;;;;22.22;14.80;;;;;;;8.24;63.96;98409.84;1749411;81;21314;-70
2021/03/16 09:47:07;;;;;;;29.45;16.77;;;;;;;8.44;63.99;98405.58;1752658;82;21189;-69
2021/03/16 09:49:40;;;;;;;25.37;16.97;;;;;;;8.55;63.84;98408.64;1720069;82;21169;-70
2021/03/16 09:52:10;;;;;;;27.05;16.80;;;;;;;8.52;63.59;98425.55;1752812;82;21173;-70
2021/03/16 09:54:44;;;;;;;26.35;18.07;;;;;;;8.51;63.60;98416.46;1754415;81;21169;-70
2021/03/16 09:57:14;;;;;;;24.47;15.80;;;;;;;8.47;63.50;98428.22;1740985;81;21676;-70
2021/03/16 09:59:44;;;;;;;30.40;16.67;;;;;;;8.46;64.11;98431.81;1736727;82;21608;-70
2021/03/16 10:02:12;;;;;;;25.02;15.85;;;;;;;8.41;63.81;98434.79;1736313;81;21159;-70
2021/03/16 10:04:49;;;;;;;21.97;15.78;;;;;;;8.35;63.53;98435.29;1731090;83;21219;-71
2021/03/16 10:07:31;;;;;;;29.98;17.05;;;;;;;8.30;63.57;98430.42;1737899;82;21657;-71
2021/03/16 10:10:22;;;;;;;29.42;17.67;;;;;;;8.35;63.61;98437.46;1735289;81;21188;-71
2021/03/16 10:13:07;;;;;;;24.57;16.95;;;;;;;8.27;63.85;98435.92;1731110;82;21314;-70
2021/03/16 10:15:39;;;;;;;28.12;18.15;;;;;;;8.14;64.35;98435.27;1745822;81;21188;-69
2021/03/16 10:18:15;;;;;;;28.92;18.50;;;;;;;8.09;64.94;98434.80;1752871;81;21609;-69
2021/03/16 10:20:48;;;;;;;26.57;17.07;;;;;;;8.12;65.12;98433.22;1746274;81;21188;-70
2021/03/16 10:23:18;;;;;;;23.53;16.53;;;;;;;8.10;64.90;98428.58;1750001;81;21141;-71
2021/03/16 10:25:55;;;;;;;24.92;18.52;;;;;;;8.14;64.95;98432.14;1750484;82;21287;-70
2021/03/16 10:28:39;;;;;;;28.55;18.67;;;;;;;8.07;65.32;98419.13;1749359;81;21152;-71
2021/03/16 10:31:18;;;;;;;27.62;18.35;;;;;;;8.00;65.45;98422.72;1736664;82;21183;-69
2021/03/16 10:33:52;;;;;;;26.33;17.05;;;;;;;7.87;65.72;98423.37;1738389;81;21317;-69
2021/03/16 10:36:21;;;;;;;26.05;16.57;;;;;;;7.66;65.86;98433.80;1760050;81;21179;-69
2021/03/16 10:38:51;;;;;;;26.05;16.60;;;;;;;7.58;66.07;98421.75;1762511;81;21240;-70
2021/03/16 10:41:20;;;;;;;24.80;16.17;;;;;;;7.48;66.14;98428.20;1752598;81;21322;-70
2021/03/16 10:43:47;;;;;;;28.50;18.10;;;;;;;7.31;66.55;98422.47;1742892;82;21749;-70
2021/03/16 10:46:15;;;;;;;27.17;17.60;;;;;;;7.20;66.91;98422.01;1727992;81;21131;-70
2021/03/16 10:48:43;;;;;;;24.43;15.72;;;;;;;7.15;67.13;98435.98;1734104;81;21154;-71
2021/03/16 10:51:11;;;;;;;24.20;14.93;;;;;;;7.21;66.81;98429.41;1734434;82;21349;-71
2021/03/16 10:53:39;;;;;;;22.02;14.78;;;;;;;7.34;66.31;98426.66;1745892;81;21168;-71
2021/03/16 10:56:06;;;;;;;27.55;16.10;;;;;;;7.27;65.81;98423.67;1751819;82;21186;-71
2021/03/16 10:58:33;;;;;;;22.75;16.07;;;;;;;7.15;66.42;98418.08;1759230;81;21131;-71
2021/03/16 11:01:01;;;;;;;22.32;15.40;;;;;;;7.09;66.66;98409.34;1745135;81;21150;-71
2021/03/16 11:03:33;;;;;;;25.65;15.98;;;;;;;7.05;66.92;98410.05;1700735;83;21607;-71
2021/03/16 11:06:00;;;;;;;27.75;16.12;;;;;;;7.17;66.85;98406.94;1724579;82;21183;-71
2021/03/16 11:08:31;;;;;;;30.57;17.00;;;;;;;7.17;66.79;98403.85;1711908;83;21171;-71
2021/03/16 11:10:59;;;;;;;29.05;17.75;;;;;;;7.15;67.00;98406.24;1699629;82;21166;-70
2021/03/16 11:13:26;;;;;;;25.23;17.37;;;;;;;7.14;67.09;98397.50;1726087;82;21131;-70
2021/03/16 11:15:54;;;;;;;22.42;15.28;;;;;;;7.18;67.01;98398.11;1719506;83;21188;-70
2021/03/16 11:18:22;;;;;;;28.05;15.60;;;;;;;7.38;66.42;98395.23;1678757;85;21557;-71
2021/03/16 11:20:49;;;;;;;23.12;15.30;;;;;;;7.50;66.09;98392.11;1663805;85;21535;-71
2021/03/16 11:23:17;;;;;;;24.77;15.03;;;;;;;7.54;66.12;98386.95;1702331;82;21171;-71
2021/03/16 11:25:44;;;;;;;25.00;15.72;;;;;;;7.58;66.04;98387.05;1709343;82;21187;-70
2021/03/16 11:28:11;;;;;;;23.42;15.05;;;;;;;7.64;65.91;98390.52;1687102;85;21281;-71
2021/03/16 11:30:38;;;;;;;23.70;15.35;;;;;;;7.66;65.68;98397.82;1671889;84;21298;-70
2021/03/16 11:33:05;;;;;;;21.68;13.35;;;;;;;7.67;65.56;98394.23;1718195;82;21147;-71
2021/03/16 11:35:51;;;;;;;21.60;14.87;;;;;;;7.77;65.31;98379.84;1692460;85;21121;-71
2021/03/16 11:38:37;;;;;;;21.27;14.78;;;;;;;7.93;64.94;98375.95;1687272;83;21345;-69
2021/03/16 11:41:23;;;;;;;26.20;15.00;;;;;;;7.90;65.04;98381.48;1715472;83;21186;-70
2021/03/16 11:44:09;;;;;;;24.02;15.40;;;;;;;7.86;64.93;98376.95;1727121;82;21142;-70
2021/03/16 11:46:55;;;;;;;23.38;15.28;;;;;;;7.86;65.37;98383.06;1705553;83;21135;-70
2021/03/16 11:49:41;;;;;;;26.57;14.55;;;;;;;7.90;65.22;98377.54;1696497;83;21171;-72
2021/03/16 11:52:27;;;;;;;22.00;14.35;;;;;;;7.99;65.19;98372.38;1734094;82;21132;-70
2021/03/16 11:55:13;;;;;;;21.62;14.03;;;;;;;8.21;64.53;98369.29;1744219;82;21132;-72
2021/03/16 11:57:59;;;;;;;24.95;15.65;;;;;;;8.27;63.95;98374.52;1749510;81;21132;-70
2021/03/16 12:00:45;;;;;;;26.27;16.75;;;;;;;8.27;64.48;98372.70;1730249;81;21273;-70
2021/03/16 12:03:34;;;;;;;23.52;15.40;;;;;;;8.27;64.24;98364.80;1675997;84;21770;-70
2021/03/16 12:06:20;;;;;;;19.67;14.15;;;;;;;8.28;64.52;98357.27;1742976;81;21305;-70
2021/03/16 12:09:07;;;;;;;26.00;14.53;;;;;;;8.31;64.78;98354.39;1671537;84;21228;-71
2021/03/16 12:11:55;;;;;;;20.35;13.78;;;;;;;8.50;64.41;98371.31;1746128;81;21203;-70
2021/03/16 12:14:42;;;;;;;22.30;14.75;;;;;;;8.50;64.64;98358.13;1738325;81;21644;-69
2021/03/16 12:17:28;;;;;;;25.80;15.48;;;;;;;8.49;64.97;98361.27;1759375;81;21758;-70
2021/03/16 12:20:15;;;;;;;23.62;15.30;;;;;;;8.49;64.71;98363.90;1762370;81;21232;-68
2021/03/16 12:23:01;;;;;;;24.55;14.68;;;;;;;8.46;64.41;98379.13;1736630;81;21195;-69
2021/03/16 12:25:51;;;;;;;28.07;14.23;;;;;;;8.40;64.39;98369.06;1722520;82;21563;-70
2021/03/16 12:28:35;;;;;;;19.98;14.43;;;;;;;8.52;64.61;98367.58;1671145;84;21635;-69
2021/03/16 12:31:21;;;;;;;19.57;13.58;;;;;;;8.56;64.48;98372.12;1752156;82;21588;-70
2021/03/16 12:34:07;;;;;;;20.97;14.35;;;;;;;8.47;64.83;98371.09;1750410;81;21612;-69
2021/03/16 12:36:53;;;;;;;24.02;14.65;;;;;;;8.37;65.20;98369.66;1738855;82;21143;-70